Decoded Metar for SBRF (RECIFE in BRAZIL) (IATA:REC) | Meteo·Mobile Aviation Weather
aviador You're here:

SBRF Decoded Metar

RECIFE in BRAZIL
Report Time2018-09-23 11:00:00
UTC Time2018-09-23 11:54:17
Flight Rules mvfr MVFR
Wind190° at 05 kt
W.Decomp.*RWY 18: 4.2 kt HW 2.6 kt RCW
W.Rank190° ranks 17
Current wind is below 190° avg. (6.3)
Visibility9999 m
Phenomena:Vicinity showers
Clouds:Broken 020 Hf
Broken 040 Hf
Expected CloudBase > 1,600 ft AGL from Temp-Dew spread
Ceiling2,000 ft
Temp25°C (ISA +10)
Dew Point21°C (79% RH)
QNH1014 hPa
Density Alt1,529 ft
Elevation62 ft
Report Wrong Elevation
Raw Report
METAR SBRF 231100Z 19005KT 9999 VCSH BKN020 BKN040 25/21 Q1014=

Extra information for SBRF:More info

Metar Taf Metar & Taf Last 4 Metars F.Rules Stats Wind Profile Meteogram Temp Stats Airport Information Weather charts Add Link Nearby VenuesMetar ALERT Operation Metar Decoded Social comments